This is the latest recevied weather packets stored in our database for station/object W0PE-1. If no packets are shown the sender has not sent any weather packets the latest 10 day(s).
| Time | Temp. | Humidity | Pressure | Rain* | Wind** | Luminosity | Snow |
|---|---|---|---|---|---|---|---|
| 1778085943 | 19.44° C | 63% | 1017.9 hPa | 0 mm | - | - | - |
| 1778085043 | 18.33° C | 68% | 1017.9 hPa | 0 mm | - | - | - |
| 1778084134 | 17.22° C | 74% | 1017.9 hPa | 0 mm | - | - | - |
| 1778083233 | 16.67° C | 79% | 1018 hPa | 0 mm | - | - | - |
| 1778082327 | 15.56° C | 83% | 1017.9 hPa | 0 mm | - | - | - |
| 1778081424 | 15° C | 86% | 1018.1 hPa | 0 mm | - | - | - |
| 1778080530 | 15° C | 89% | 1018.1 hPa | 0 mm | - | - | - |
| 1778079618 | 13.89° C | 90% | 1018 hPa | 0 mm | - | - | - |
| 1778078715 | 13.33° C | 90% | 1018.1 hPa | 0 mm | - | - | - |
| 1778077816 | 12.78° C | 90% | 1018 hPa | 0 mm | - | - | - |
| 1778076912 | 12.22° C | 90% | 1017.9 hPa | 0 mm | - | - | - |
| 1778076016 | 11.67° C | 90% | 1017.9 hPa | 0 mm | - | - | - |
| 1778075110 | 10.56° C | 90% | 1017.8 hPa | 0 mm | - | - | - |
| 1778074209 | 10.56° C | 89% | 1017.6 hPa | 0 mm | - | - | - |
| 1778073313 | 10.56° C | 89% | 1017.4 hPa | 0 mm | - | - | - |
| 1778072406 | 10.56° C | 89% | 1017.3 hPa | 0 mm | - | - | - |
| 1778071504 | 10.56° C | 89% | 1017.2 hPa | 0 mm | - | - | - |
| 1778070604 | 11.11° C | 88% | 1017.1 hPa | 0 mm | - | - | - |
| 1778069701 | 11.11° C | 88% | 1016.9 hPa | 0 mm | - | - | - |
| 1778068860 | 11.11° C | 88% | 1017 hPa | 0 mm | - | - | - |
| 1778067965 | 11.11° C | 88% | 1016.9 hPa | 0 mm | - | - | - |
| 1778067062 | 11.11° C | 88% | 1016.8 hPa | 0 mm | - | - | - |
| 1778066165 | 11.67° C | 88% | 1016.7 hPa | 0 mm | - | - | - |
| 1778065255 | 11.67° C | 87% | 1016.7 hPa | 0 mm | - | - | - |
| 1778064358 | 11.67° C | 87% | 1016.9 hPa | 0 mm | - | - | - |
* Rain latest hour (hover to see other rain measurements)
** Current wind speed in m/s (hover to see current wind gust speed)